Terminal Aerodrome Forecast
Issued by NWS Dodge City, KS

Home | Current Version | Previous Version | Graphics & Text | Print | Product List | Glossary Off
Versions: 1 2 3 4 5 6 7 8 9 10 11 12 13 14 15 16 17 18 19 20 21 22 23 24 25 26 27 28 29 30 31 32 33 34 35 36 37 38 39 40 41 42 43 44

000
FTUS43 KDDC 220843 AAB
TAFDDC
TAF AMD
KDDC 220843Z 2209/2306 21009KT 3SM BR SCT005
      TEMPO 2209/2212 1SM BR BKN007
     FM221200 21009KT 3SM BR SCT005 BKN150
     FM221600 20012G22KT P6SM SCT200
     FM230300 18011KT 4SM BR FEW005 SCT200=

USA.gov is the U.S. government's official web portal to all federal, state and local government web resources and services.